createdAt,value
2019-04-07T00:02:12.052Z,18.37
2019-04-07T00:04:41.722Z,17.80
2019-04-07T00:07:12.842Z,18.07
2019-04-07T00:09:42.478Z,18.52
2019-04-07T00:12:12.569Z,17.90
2019-04-07T00:14:42.478Z,17.87
2019-04-07T00:17:12.350Z,18.75
2019-04-07T00:19:41.977Z,18.30
2019-04-07T00:22:11.538Z,18.40
2019-04-07T00:24:40.958Z,18.82
2019-04-07T00:27:10.665Z,18.25
2019-04-07T00:29:40.208Z,18.37
2019-04-07T00:32:09.835Z,18.30
2019-04-07T00:34:39.804Z,18.37
2019-04-07T00:37:10.674Z,20.15
2019-04-07T00:39:40.408Z,17.92
2019-04-07T00:42:10.460Z,18.10
2019-04-07T00:44:39.938Z,18.73
2019-04-07T00:47:10.702Z,19.40
2019-04-07T00:49:59.823Z,19.05
2019-04-07T00:52:29.516Z,18.45
2019-04-07T00:54:59.480Z,19.00
2019-04-07T00:57:30.116Z,18.02
2019-04-07T01:00:00.455Z,18.73
2019-04-07T01:02:31.075Z,17.92
2019-04-07T01:05:00.555Z,18.82
2019-04-07T01:07:30.069Z,19.00
2019-04-07T01:09:59.603Z,18.20
2019-04-07T01:12:29.321Z,19.55
2019-04-07T01:14:59.545Z,17.42
2019-04-07T01:17:29.167Z,18.52
2019-04-07T01:19:58.708Z,17.48
2019-04-07T01:22:28.378Z,17.55
2019-04-07T01:24:58.499Z,16.93
2019-04-07T01:27:28.622Z,16.67
2019-04-07T01:29:58.543Z,17.73
2019-04-07T01:32:28.091Z,17.37
2019-04-07T01:34:58.111Z,16.12
2019-04-07T01:37:28.972Z,16.50
2019-04-07T01:39:59.235Z,16.42
2019-04-07T01:42:30.370Z,16.87
2019-04-07T01:45:18.017Z,17.70
2019-04-07T01:47:52.438Z,16.15
2019-04-07T01:50:23.934Z,16.80
2019-04-07T01:53:01.174Z,15.50
2019-04-07T01:55:42.148Z,16.23
2019-04-07T01:58:20.089Z,16.87
2019-04-07T02:00:57.643Z,17.17
2019-04-07T02:03:38.157Z,17.65
2019-04-07T02:06:09.544Z,17.77
2019-04-07T02:08:52.908Z,17.65
2019-04-07T02:11:29.972Z,18.07
2019-04-07T02:14:13.749Z,17.90
2019-04-07T02:16:46.526Z,17.65
2019-04-07T02:19:18.232Z,17.95
2019-04-07T02:22:06.947Z,18.77
2019-04-07T02:24:43.878Z,16.93
2019-04-07T02:27:15.282Z,17.27
2019-04-07T02:29:46.942Z,18.23
2019-04-07T02:32:27.860Z,17.57
2019-04-07T02:34:59.264Z,16.52
2019-04-07T02:37:39.077Z,17.27
2019-04-07T02:40:16.451Z,17.20
2019-04-07T02:43:01.608Z,16.70
2019-04-07T02:45:38.790Z,15.63
2019-04-07T02:48:22.137Z,15.70
2019-04-07T02:51:08.444Z,15.53
2019-04-07T02:53:42.316Z,15.32
2019-04-07T02:56:22.629Z,14.47
2019-04-07T02:58:59.581Z,14.45
2019-04-07T03:01:33.426Z,14.18
2019-04-07T03:04:04.817Z,12.90
2019-04-07T03:06:47.281Z,12.95
2019-04-07T03:09:27.223Z,12.88
2019-04-07T03:11:59.646Z,13.00
2019-04-07T03:14:33.713Z,13.40
2019-04-07T03:17:23.287Z,12.18
2019-04-07T03:19:57.610Z,11.28
2019-04-07T03:22:34.635Z,11.40
2019-04-07T03:25:09.849Z,11.18
2019-04-07T03:27:44.500Z,11.35
2019-04-07T03:30:27.848Z,11.45
2019-04-07T03:33:00.318Z,11.60
2019-04-07T03:35:38.361Z,11.30
2019-04-07T03:38:09.605Z,12.47
2019-04-07T03:40:44.153Z,12.98
2019-04-07T03:43:34.344Z,13.10
2019-04-07T03:46:12.121Z,12.82
2019-04-07T03:49:18.786Z,13.15
2019-04-07T03:52:07.096Z,12.37
2019-04-07T03:54:38.357Z,12.90
2019-04-07T03:57:19.581Z,12.93
2019-04-07T03:59:56.347Z,13.05
2019-04-07T04:02:39.277Z,13.03
2019-04-07T04:05:10.614Z,13.70
2019-04-07T04:07:56.956Z,13.25
2019-04-07T04:10:28.655Z,13.38
2019-04-07T04:13:05.551Z,13.53
2019-04-07T04:15:36.769Z,13.95
2019-04-07T04:18:06.319Z,13.68
2019-04-07T04:20:37.284Z,14.60
2019-04-07T04:23:07.789Z,13.93
2019-04-07T04:25:38.610Z,13.75
2019-04-07T04:28:08.461Z,14.20
2019-04-07T04:30:37.971Z,12.75
2019-04-07T04:33:08.778Z,12.70
2019-04-07T04:35:38.843Z,12.03
2019-04-07T04:38:08.747Z,11.03
2019-04-07T04:40:38.237Z,11.80
2019-04-07T04:43:07.722Z,11.48
2019-04-07T04:45:37.272Z,10.72
2019-04-07T04:48:06.837Z,10.35
2019-04-07T04:50:38.407Z,10.13
2019-04-07T04:53:09.246Z,9.75
2019-04-07T04:55:40.103Z,9.28
2019-04-07T04:58:12.660Z,9.55
2019-04-07T05:00:42.857Z,9.65
2019-04-07T05:03:12.770Z,9.15
2019-04-07T05:05:43.336Z,8.38
2019-04-07T05:08:12.961Z,8.20
2019-04-07T05:10:46.242Z,8.80
2019-04-07T05:13:15.979Z,8.98
2019-04-07T05:15:45.652Z,7.80
2019-04-07T05:18:15.057Z,8.03
2019-04-07T05:20:45.273Z,8.73
2019-04-07T05:23:28.472Z,8.30
2019-04-07T05:25:58.264Z,8.28
2019-04-07T05:28:27.815Z,8.18
2019-04-07T05:30:57.961Z,7.80
2019-04-07T05:33:27.819Z,8.38
2019-04-07T05:35:57.526Z,7.72
2019-04-07T05:38:28.022Z,7.42
2019-04-07T05:40:57.573Z,7.35
2019-04-07T05:43:27.387Z,6.53
2019-04-07T05:45:57.599Z,6.42
2019-04-07T05:48:27.032Z,6.10
2019-04-07T05:50:59.965Z,6.35
2019-04-07T05:53:27.806Z,5.60
2019-04-07T05:55:57.980Z,5.40
2019-04-07T05:58:29.041Z,5.87
2019-04-07T06:00:58.817Z,5.62
2019-04-07T06:03:28.308Z,5.58
2019-04-07T06:05:58.024Z,6.28
2019-04-07T06:08:35.546Z,6.60
2019-04-07T06:11:02.253Z,6.70
2019-04-07T06:13:31.314Z,6.50
2019-04-07T06:16:01.127Z,6.80
2019-04-07T06:18:33.858Z,9.75
2019-04-07T06:21:01.591Z,15.28
2019-04-07T06:23:31.023Z,9.38
2019-04-07T06:26:00.769Z,7.70
2019-04-07T06:28:30.370Z,7.10
2019-04-07T06:31:01.360Z,6.75
2019-04-07T06:33:31.955Z,5.95
2019-04-07T06:36:01.713Z,5.60
2019-04-07T06:38:34.966Z,5.80
2019-04-07T06:41:03.139Z,6.85
2019-04-07T06:43:35.149Z,7.00
2019-04-07T06:46:27.061Z,8.98
2019-04-07T06:49:01.576Z,7.83
2019-04-07T06:51:42.400Z,7.15
2019-04-07T06:54:20.495Z,7.83
2019-04-07T06:59:37.223Z,10.85
2019-04-07T07:02:08.651Z,7.90
2019-04-07T07:04:43.597Z,7.08
2019-04-07T07:07:16.747Z,7.22
2019-04-07T07:09:59.846Z,7.72
2019-04-07T07:12:35.020Z,11.08
2019-04-07T07:15:12.154Z,13.62
2019-04-07T07:17:59.025Z,12.15
2019-04-07T07:20:47.720Z,13.62
2019-04-07T07:23:22.026Z,13.13
2019-04-07T07:25:51.975Z,13.10
2019-04-07T07:28:21.613Z,12.47
2019-04-07T07:30:52.716Z,12.25
2019-04-07T07:33:22.368Z,12.37
2019-04-07T07:35:52.642Z,11.45
2019-04-07T07:38:23.193Z,15.20
2019-04-07T07:40:52.908Z,11.95
2019-04-07T07:43:22.723Z,11.68
2019-04-07T07:45:52.664Z,11.12
2019-04-07T07:48:26.231Z,11.48
2019-04-07T07:50:53.725Z,12.95
2019-04-07T07:53:26.941Z,11.18
2019-04-07T07:55:54.449Z,10.38
2019-04-07T07:58:27.945Z,11.15
2019-04-07T08:00:58.280Z,12.13
2019-04-07T08:03:27.305Z,11.05
2019-04-07T08:05:56.847Z,12.23
2019-04-07T08:08:26.425Z,11.05
2019-04-07T08:10:58.572Z,10.38
2019-04-07T08:13:27.359Z,11.50
2019-04-07T08:15:59.157Z,11.15
2019-04-07T08:18:29.652Z,9.68
2019-04-07T08:20:59.321Z,9.40
2019-04-07T08:23:29.588Z,9.45
2019-04-07T08:26:00.353Z,9.55
2019-04-07T08:28:33.671Z,10.28
2019-04-07T08:31:17.734Z,9.15
2019-04-07T08:33:45.091Z,8.90
2019-04-07T08:36:15.029Z,8.60
2019-04-07T08:38:44.634Z,9.38
2019-04-07T08:41:15.894Z,10.85
2019-04-07T08:43:46.255Z,9.70
2019-04-07T08:46:16.608Z,8.48
2019-04-07T08:48:49.736Z,7.62
2019-04-07T08:51:18.980Z,8.08
2019-04-07T08:53:48.638Z,7.42
2019-04-07T08:56:18.063Z,7.97
2019-04-07T08:58:47.825Z,8.00
2019-04-07T09:01:20.197Z,7.80
2019-04-07T09:03:48.752Z,7.70
2019-04-07T09:06:18.524Z,6.87
2019-04-07T09:08:48.152Z,7.42
2019-04-07T09:11:21.650Z,5.70
2019-04-07T09:13:52.610Z,8.00
2019-04-07T09:16:30.226Z,11.12
2019-04-07T09:19:06.796Z,8.33
2019-04-07T09:21:42.427Z,6.60
2019-04-07T09:24:30.514Z,6.40
2019-04-07T09:27:01.125Z,6.47
2019-04-07T09:29:48.823Z,7.08
2019-04-07T09:32:22.675Z,6.42
2019-04-07T09:35:12.313Z,7.67
2019-04-07T09:37:47.025Z,16.70
2019-04-07T09:40:34.550Z,19.62
2019-04-07T09:43:22.484Z,29.00
2019-04-07T09:46:03.472Z,15.28
2019-04-07T09:48:35.371Z,9.05
2019-04-07T09:51:07.290Z,6.25
2019-04-07T09:53:56.782Z,4.90
2019-04-07T09:56:40.819Z,4.00
2019-04-07T09:59:14.992Z,3.45
2019-04-07T10:02:02.562Z,4.20
2019-04-07T10:04:37.912Z,4.22
2019-04-07T10:07:15.359Z,4.30
2019-04-07T10:10:07.406Z,4.47
2019-04-07T10:12:36.285Z,4.87
2019-04-07T10:15:26.566Z,4.20
2019-04-07T10:18:06.229Z,4.00
2019-04-07T10:20:37.284Z,6.50
2019-04-07T10:23:09.395Z,4.65
2019-04-07T10:25:42.306Z,4.80
2019-04-07T10:28:28.848Z,5.50
2019-04-07T10:31:18.454Z,5.95
2019-04-07T10:33:57.215Z,6.30
2019-04-07T10:36:37.425Z,4.78
2019-04-07T10:39:09.574Z,4.92
2019-04-07T10:41:44.120Z,6.00
2019-04-07T10:44:24.965Z,7.15
2019-04-07T10:46:59.378Z,12.37
2019-04-07T10:49:43.184Z,11.05
2019-04-07T10:52:14.824Z,5.22
2019-04-07T10:55:04.130Z,4.50
2019-04-07T10:57:38.934Z,4.62
2019-04-07T11:00:24.045Z,4.62
2019-04-07T11:03:10.997Z,4.65
2019-04-07T11:05:58.195Z,6.00
2019-04-07T11:08:38.222Z,10.13
2019-04-07T11:11:22.258Z,8.53
2019-04-07T11:14:13.408Z,8.25
2019-04-07T11:16:50.662Z,7.00
2019-04-07T11:19:28.542Z,4.20
2019-04-07T11:22:12.332Z,3.70
2019-04-07T11:24:55.794Z,4.15
2019-04-07T11:27:29.862Z,4.20
2019-04-07T11:30:00.972Z,5.72
2019-04-07T11:32:34.872Z,5.25
2019-04-07T11:38:07.016Z,3.62
2019-04-07T11:40:45.799Z,4.72
2019-04-07T11:43:20.760Z,4.03
2019-04-07T11:46:02.194Z,3.67
2019-04-07T11:48:31.753Z,4.30
2019-04-07T11:51:03.298Z,3.60
2019-04-07T11:53:50.203Z,2.92
2019-04-07T11:56:37.123Z,3.33
2019-04-07T11:59:24.743Z,3.75
2019-04-07T12:01:59.715Z,2.67
2019-04-07T12:04:47.904Z,2.53
2019-04-07T12:07:23.082Z,2.50
2019-04-07T12:09:59.871Z,3.50
2019-04-07T12:12:34.294Z,8.28
2019-04-07T12:15:26.860Z,3.30
2019-04-07T12:18:11.753Z,3.33
2019-04-07T12:20:45.118Z,3.10
2019-04-07T12:23:25.193Z,3.47
2019-04-07T12:26:04.123Z,3.12
2019-04-07T12:28:50.415Z,3.00
2019-04-07T12:31:25.979Z,2.87
2019-04-07T12:34:00.211Z,3.55
2019-04-07T12:36:34.441Z,4.00
2019-04-07T12:39:22.630Z,3.70
2019-04-07T12:41:55.933Z,3.22
2019-04-07T12:44:26.543Z,3.50
2019-04-07T12:47:00.338Z,3.22
2019-04-07T12:49:42.207Z,3.30
2019-04-07T12:52:28.061Z,3.65
2019-04-07T12:54:58.058Z,3.67
2019-04-07T12:57:29.199Z,3.22
2019-04-07T13:00:07.082Z,3.35
2019-04-07T13:02:47.595Z,3.25
2019-04-07T13:05:21.704Z,3.72
2019-04-07T13:08:09.174Z,3.55
2019-04-07T13:10:40.509Z,3.67
2019-04-07T13:13:12.415Z,3.35
2019-04-07T13:15:49.791Z,3.12
2019-04-07T13:18:38.972Z,3.40
2019-04-07T13:21:10.453Z,3.20
2019-04-07T13:23:57.196Z,3.30
2019-04-07T13:26:32.391Z,3.35
2019-04-07T13:29:20.539Z,3.70
2019-04-07T13:31:58.174Z,3.40
2019-04-07T13:34:35.724Z,3.27
2019-04-07T13:37:21.894Z,3.75
2019-04-07T13:42:25.408Z,2.60
2019-04-07T13:45:05.156Z,2.58
2019-04-07T13:47:48.646Z,3.55
2019-04-07T13:50:31.090Z,3.40
2019-04-07T13:53:19.315Z,5.37
2019-04-07T13:55:57.150Z,2.77
2019-04-07T13:58:37.301Z,2.25
2019-04-07T14:01:21.332Z,1.90
2019-04-07T14:04:31.667Z,2.15
2019-04-07T14:07:02.484Z,4.45
2019-04-07T14:09:40.688Z,2.10
2019-04-07T14:12:30.992Z,1.75
2019-04-07T14:15:15.920Z,2.05
2019-04-07T14:17:48.076Z,1.98
2019-04-07T14:20:25.721Z,1.65
2019-04-07T14:23:08.841Z,1.77
2019-04-07T14:25:45.365Z,1.62
2019-04-07T14:31:03.172Z,1.62
2019-04-07T14:33:46.942Z,1.47
2019-04-07T14:36:21.814Z,1.60
2019-04-07T14:39:09.647Z,1.70
2019-04-07T14:42:02.582Z,1.72
2019-04-07T14:44:33.656Z,2.05
2019-04-07T14:47:08.882Z,2.20
2019-04-07T14:49:46.183Z,1.82
2019-04-07T14:55:00.013Z,1.80
2019-04-07T14:57:35.119Z,1.82
2019-04-07T15:00:10.964Z,1.77
2019-04-07T15:02:41.167Z,1.60
2019-04-07T15:05:25.403Z,1.72
2019-04-07T15:07:59.479Z,2.30
2019-04-07T15:10:36.186Z,1.72
2019-04-07T15:13:07.548Z,1.85
2019-04-07T15:15:37.155Z,2.00
2019-04-07T15:18:07.216Z,2.30
2019-04-07T15:20:37.849Z,3.05
2019-04-07T15:23:07.567Z,2.30
2019-04-07T15:25:40.644Z,1.92
2019-04-07T15:28:08.963Z,1.80
2019-04-07T15:30:38.527Z,1.70
2019-04-07T15:33:11.606Z,2.10
2019-04-07T15:35:45.086Z,2.10
2019-04-07T15:38:11.894Z,2.10
2019-04-07T15:40:41.334Z,2.95
2019-04-07T15:43:11.696Z,2.67
2019-04-07T15:45:44.393Z,2.15
2019-04-07T15:48:13.655Z,1.67
2019-04-07T15:50:43.220Z,2.10
2019-04-07T15:53:14.393Z,2.00
2019-04-07T15:55:52.997Z,2.45
2019-04-07T15:58:15.487Z,3.47
2019-04-07T16:00:45.358Z,3.77
2019-04-07T16:03:16.881Z,3.65
2019-04-07T16:05:46.659Z,3.80
2019-04-07T16:08:16.307Z,11.40
2019-04-07T16:10:46.577Z,13.22
2019-04-07T16:13:16.340Z,5.97
2019-04-07T16:15:48.358Z,4.50
2019-04-07T16:18:17.190Z,8.38
2019-04-07T16:20:46.969Z,3.62
2019-04-07T16:23:18.329Z,3.33
2019-04-07T16:25:47.642Z,3.17
2019-04-07T16:28:17.238Z,3.08
2019-04-07T16:30:49.573Z,3.27
2019-04-07T16:33:19.443Z,3.42
2019-04-07T16:35:54.025Z,3.70
2019-04-07T16:38:20.696Z,3.90
2019-04-07T16:40:50.282Z,4.62
2019-04-07T16:43:20.188Z,4.53
2019-04-07T16:45:50.657Z,5.03
2019-04-07T16:48:20.884Z,4.70
2019-04-07T16:50:54.740Z,5.03
2019-04-07T16:53:21.892Z,4.05
2019-04-07T16:55:54.903Z,3.80
2019-04-07T16:58:22.782Z,4.95
2019-04-07T17:00:52.287Z,7.75
2019-04-07T17:03:21.782Z,8.65
2019-04-07T17:05:55.748Z,11.15
2019-04-07T17:08:24.687Z,10.78
2019-04-07T17:10:54.182Z,11.25
2019-04-07T17:13:34.829Z,11.97
2019-04-07T17:15:55.288Z,11.10
2019-04-07T17:18:36.904Z,12.07
2019-04-07T17:21:16.062Z,12.55
2019-04-07T17:23:46.165Z,13.53
2019-04-07T17:26:15.728Z,12.80
2019-04-07T17:28:47.419Z,12.45
2019-04-07T17:31:17.509Z,13.32
2019-04-07T17:33:47.211Z,11.57
2019-04-07T17:36:20.123Z,11.43
2019-04-07T17:39:07.117Z,11.97
2019-04-07T17:41:37.851Z,11.65
2019-04-07T17:44:16.045Z,11.10
2019-04-07T17:47:00.098Z,11.53
2019-04-07T17:49:35.566Z,11.57
2019-04-07T17:52:22.237Z,11.75
2019-04-07T17:54:56.128Z,12.37
2019-04-07T17:57:42.796Z,12.47
2019-04-07T18:00:18.034Z,11.85
2019-04-07T18:03:07.484Z,12.07
2019-04-07T18:05:50.833Z,12.37
2019-04-07T18:08:25.191Z,11.10
2019-04-07T18:11:02.371Z,12.33
2019-04-07T18:13:49.928Z,12.13
2019-04-07T18:16:25.573Z,13.78
2019-04-07T18:19:13.106Z,12.45
2019-04-07T18:21:52.777Z,12.55
2019-04-07T18:24:23.465Z,12.30
2019-04-07T18:27:12.441Z,13.32
2019-04-07T18:29:43.407Z,13.22
2019-04-07T18:32:26.462Z,12.35
2019-04-07T18:34:58.763Z,12.45
2019-04-07T18:37:36.435Z,12.95
2019-04-07T18:40:11.974Z,12.30
2019-04-07T18:42:46.730Z,13.20
2019-04-07T18:45:35.034Z,13.55
2019-04-07T18:48:19.184Z,13.62
2019-04-07T18:51:12.593Z,13.65
2019-04-07T18:53:44.116Z,13.05
2019-04-07T18:56:25.072Z,16.55
2019-04-07T18:59:11.747Z,13.55
2019-04-07T19:01:43.540Z,11.70
2019-04-07T19:04:17.004Z,11.50
2019-04-07T19:06:49.509Z,11.65
2019-04-07T19:09:27.142Z,11.97
2019-04-07T19:12:18.516Z,11.18
2019-04-07T19:14:55.971Z,11.68
2019-04-07T19:17:38.529Z,11.60
2019-04-07T19:20:28.753Z,10.75
2019-04-07T19:23:09.837Z,11.57
2019-04-07T19:25:47.873Z,10.85
2019-04-07T19:28:22.931Z,11.03
2019-04-07T19:31:06.915Z,11.93
2019-04-07T19:33:44.108Z,11.15
2019-04-07T19:36:21.513Z,10.43
2019-04-07T19:39:09.103Z,11.40
2019-04-07T19:41:49.426Z,10.60
2019-04-07T19:44:32.721Z,10.45
2019-04-07T19:47:08.974Z,11.38
2019-04-07T19:49:55.715Z,11.10
2019-04-07T19:52:34.099Z,11.03
2019-04-07T19:55:22.631Z,11.28
2019-04-07T19:58:02.772Z,10.72
2019-04-07T20:00:55.310Z,10.75
2019-04-07T20:03:42.462Z,10.78
2019-04-07T20:06:30.634Z,11.00
2019-04-07T20:09:19.281Z,10.18
2019-04-07T20:11:51.461Z,10.10
2019-04-07T20:14:26.291Z,11.33
2019-04-07T20:17:17.046Z,10.95
2019-04-07T20:19:54.063Z,9.58
2019-04-07T20:22:41.417Z,10.35
2019-04-07T20:25:15.938Z,9.65
2019-04-07T20:28:02.284Z,9.98
2019-04-07T20:30:39.424Z,10.28
2019-04-07T20:33:29.845Z,9.80
2019-04-07T20:36:07.093Z,11.10
2019-04-07T20:38:58.424Z,9.90
2019-04-07T20:41:38.466Z,9.93
2019-04-07T20:44:33.671Z,10.68
2019-04-07T20:47:17.545Z,10.60
2019-04-07T20:49:58.792Z,8.85
2019-04-07T20:52:46.076Z,8.08
2019-04-07T20:55:23.284Z,8.90
2019-04-07T20:58:17.795Z,8.65
2019-04-07T21:01:00.134Z,8.63
2019-04-07T21:03:29.850Z,8.68
2019-04-07T21:06:17.492Z,7.87
2019-04-07T21:08:48.568Z,8.93
2019-04-07T21:11:21.573Z,8.15
2019-04-07T21:13:52.963Z,8.63
2019-04-07T21:16:40.031Z,9.20
2019-04-07T21:19:27.688Z,9.73
2019-04-07T21:22:05.451Z,9.85
2019-04-07T21:24:37.662Z,8.78
2019-04-07T21:27:14.404Z,9.28
2019-04-07T21:29:48.455Z,9.50
2019-04-07T21:32:22.766Z,8.45
2019-04-07T21:35:01.799Z,9.10
2019-04-07T21:37:49.416Z,8.83
2019-04-07T21:40:24.377Z,8.43
2019-04-07T21:42:56.229Z,9.05
2019-04-07T21:45:38.954Z,8.98
2019-04-07T21:48:22.849Z,8.20
2019-04-07T21:50:54.804Z,9.08
2019-04-07T21:53:31.670Z,9.20
2019-04-07T21:56:13.309Z,8.38
2019-04-07T21:58:43.987Z,8.95
2019-04-07T22:01:18.689Z,8.30
2019-04-07T22:03:59.027Z,9.43
2019-04-07T22:06:37.155Z,9.43
2019-04-07T22:09:15.895Z,9.25
2019-04-07T22:11:44.943Z,8.95
2019-04-07T22:14:15.155Z,8.25
2019-04-07T22:16:44.929Z,9.28
2019-04-07T22:19:16.236Z,9.45
2019-04-07T22:21:45.583Z,9.20
2019-04-07T22:24:15.260Z,9.00
2019-04-07T22:26:49.196Z,8.05
2019-04-07T22:29:16.196Z,8.70
2019-04-07T22:31:47.919Z,8.55
2019-04-07T22:34:18.537Z,8.53
2019-04-07T22:36:48.299Z,8.78
2019-04-07T22:39:18.455Z,8.88
2019-04-07T22:41:48.418Z,8.63
2019-04-07T22:44:19.877Z,8.73
2019-04-07T22:46:51.255Z,8.80
2019-04-07T22:49:20.207Z,8.58
2019-04-07T22:51:50.766Z,8.70
2019-04-07T22:54:20.826Z,8.30
2019-04-07T22:56:50.217Z,8.75
2019-04-07T22:59:19.766Z,8.20
2019-04-07T23:01:49.401Z,8.58
2019-04-07T23:04:19.095Z,9.15
2019-04-07T23:06:48.549Z,9.23
2019-04-07T23:09:19.016Z,9.83
2019-04-07T23:11:48.626Z,9.28
2019-04-07T23:14:18.177Z,9.03
2019-04-07T23:16:48.523Z,8.75
2019-04-07T23:19:18.548Z,9.00
2019-04-07T23:21:49.105Z,9.15
2019-04-07T23:24:19.215Z,9.28
2019-04-07T23:26:50.924Z,8.68
2019-04-07T23:29:20.600Z,8.63
2019-04-07T23:31:51.357Z,8.73
2019-04-07T23:34:21.130Z,10.08
2019-04-07T23:36:50.664Z,9.10
2019-04-07T23:39:20.185Z,8.53
2019-04-07T23:41:49.607Z,9.78
2019-04-07T23:44:19.132Z,9.53
2019-04-07T23:46:48.934Z,10.23
2019-04-07T23:49:19.080Z,9.63
2019-04-07T23:51:48.512Z,9.53
2019-04-07T23:54:18.362Z,9.80
2019-04-07T23:56:47.869Z,9.55
2019-04-07T23:59:17.324Z,9.23
